createdAt,value
2023-04-25T00:00:43.170Z,51.156120
2023-04-25T00:01:43.209Z,51.156120
2023-04-25T00:02:43.359Z,51.156132
2023-04-25T00:03:43.298Z,51.156105
2023-04-25T00:04:43.570Z,51.156155
2023-04-25T00:05:43.144Z,51.156139
2023-04-25T00:06:44.120Z,51.156124
2023-04-25T00:07:43.141Z,51.156109
2023-04-25T00:08:43.088Z,51.156136
2023-04-25T00:09:43.117Z,51.156094
2023-04-25T00:10:43.086Z,51.156113
2023-04-25T00:11:43.091Z,51.156052
2023-04-25T00:12:43.105Z,51.156143
2023-04-25T00:13:43.186Z,51.156166
2023-04-25T00:14:43.035Z,51.156139
2023-04-25T00:15:43.163Z,51.156136
2023-04-25T00:16:43.096Z,51.156166
2023-04-25T00:17:43.145Z,51.156090
2023-04-25T00:18:43.525Z,51.156075
2023-04-25T00:19:43.015Z,51.156147
2023-04-25T00:20:43.111Z,51.156139
2023-04-25T00:21:42.971Z,51.156162
2023-04-25T00:22:43.116Z,51.156151
2023-04-25T00:23:42.976Z,51.156094
2023-04-25T00:24:42.955Z,51.156097
2023-04-25T00:25:42.974Z,51.156132
2023-04-25T00:26:42.942Z,51.156200
2023-04-25T00:27:42.926Z,51.156197
2023-04-25T00:28:42.926Z,51.156113
2023-04-25T00:29:42.927Z,51.156082
2023-04-25T00:30:42.920Z,51.156101
2023-04-25T00:31:42.911Z,51.156094
2023-04-25T00:32:42.943Z,51.156109
2023-04-25T00:33:42.872Z,51.156139
2023-04-25T00:34:42.949Z,51.156120
2023-04-25T00:35:42.857Z,51.156132
2023-04-25T00:36:42.821Z,51.155991
2023-04-25T00:37:42.891Z,51.156013
2023-04-25T00:38:42.814Z,51.156082
2023-04-25T00:39:42.830Z,51.156109
2023-04-25T00:40:42.822Z,51.156147
2023-04-25T00:41:42.833Z,51.156086
2023-04-25T00:42:42.789Z,51.156113
2023-04-25T00:43:42.779Z,51.156143
2023-04-25T00:44:42.760Z,51.156113
2023-04-25T00:45:42.771Z,51.156139
2023-04-25T00:46:42.786Z,51.156094
2023-04-25T00:47:42.738Z,51.156094
2023-04-25T00:48:42.712Z,51.156101
2023-04-25T00:49:42.737Z,51.156078
2023-04-25T00:50:42.697Z,51.156094
2023-04-25T00:51:42.698Z,51.156101
2023-04-25T00:52:42.717Z,51.156101
2023-04-25T00:53:42.657Z,51.156097
2023-04-25T00:54:42.662Z,51.156071
2023-04-25T00:55:42.642Z,51.156120
2023-04-25T00:56:42.637Z,51.156105
2023-04-25T00:57:42.654Z,51.156139
2023-04-25T00:58:42.661Z,51.156109
2023-04-25T00:59:42.642Z,51.156071
2023-04-25T01:00:42.691Z,51.156086
2023-04-25T01:01:42.651Z,51.156090
2023-04-25T01:02:42.736Z,51.156082
2023-04-25T01:03:42.729Z,51.156078
2023-04-25T01:04:42.575Z,51.156105
2023-04-25T01:05:42.587Z,51.156075
2023-04-25T01:06:42.582Z,51.156136
2023-04-25T01:07:42.521Z,51.156105
2023-04-25T01:08:42.540Z,51.156109
2023-04-25T01:09:42.516Z,51.156128
2023-04-25T01:10:42.508Z,51.156105
2023-04-25T01:11:42.584Z,51.156101
2023-04-25T01:12:42.478Z,51.156143
2023-04-25T01:13:42.492Z,51.156113
2023-04-25T01:14:42.507Z,51.156075
2023-04-25T01:15:42.468Z,51.156097
2023-04-25T01:16:42.577Z,51.156120
2023-04-25T01:17:42.549Z,51.156097
2023-04-25T01:18:42.425Z,51.156090
2023-04-25T01:19:42.451Z,51.156124
2023-04-25T01:20:42.420Z,51.156105
2023-04-25T01:21:42.399Z,51.156132
2023-04-25T01:22:42.390Z,51.156136
2023-04-25T01:23:42.410Z,51.156162
2023-04-25T01:24:42.386Z,51.156120
2023-04-25T01:25:42.364Z,51.156090
2023-04-25T01:26:42.409Z,51.156094
2023-04-25T01:27:42.334Z,51.156086
2023-04-25T01:28:42.446Z,51.156139
2023-04-25T01:29:42.414Z,51.156139
2023-04-25T01:30:42.307Z,51.156101
2023-04-25T01:31:42.327Z,51.156055
2023-04-25T01:32:42.354Z,51.156090
2023-04-25T01:33:42.281Z,51.156071
2023-04-25T01:34:42.300Z,51.156120
2023-04-25T01:35:42.295Z,51.156113
2023-04-25T01:36:42.339Z,51.156109
2023-04-25T01:37:42.241Z,51.156090
2023-04-25T01:38:42.230Z,51.156128
2023-04-25T01:39:42.275Z,51.156116
2023-04-25T01:40:42.209Z,51.156086
2023-04-25T01:41:42.252Z,51.156097
2023-04-25T01:42:42.206Z,51.156082
2023-04-25T01:43:42.197Z,51.156094
2023-04-25T01:44:42.188Z,51.156128
2023-04-25T01:45:42.271Z,51.156124
2023-04-25T01:46:42.165Z,51.156105
2023-04-25T01:47:42.171Z,51.156109
2023-04-25T01:48:42.180Z,51.156113
2023-04-25T01:49:42.131Z,51.156113
2023-04-25T01:50:42.111Z,51.156101
2023-04-25T01:51:42.154Z,51.156132
2023-04-25T01:52:42.110Z,51.156124
2023-04-25T01:53:42.109Z,51.156124
2023-04-25T01:54:42.091Z,51.156124
2023-04-25T01:55:42.088Z,51.156101
2023-04-25T01:56:42.075Z,51.156116
2023-04-25T01:57:42.045Z,51.156120
2023-04-25T01:58:42.051Z,51.156124
2023-04-25T01:59:42.038Z,51.156143
2023-04-25T02:00:42.067Z,51.156116
2023-04-25T02:01:42.178Z,51.156105
2023-04-25T02:02:42.151Z,51.156101
2023-04-25T02:03:42.157Z,51.156097
2023-04-25T02:04:42.140Z,51.156116
2023-04-25T02:05:42.002Z,51.156128
2023-04-25T02:06:42.103Z,51.156113
2023-04-25T02:07:42.963Z,51.156109
2023-04-25T02:08:41.962Z,51.156105
2023-04-25T02:09:41.945Z,51.156109
2023-04-25T02:10:41.934Z,51.156116
2023-04-25T02:11:41.964Z,51.156094
2023-04-25T02:12:41.919Z,51.156078
2023-04-25T02:13:41.925Z,51.156090
2023-04-25T02:14:41.927Z,51.156105
2023-04-25T02:15:41.938Z,51.156101
2023-04-25T02:16:41.996Z,51.156116
2023-04-25T02:17:41.936Z,51.156086
2023-04-25T02:18:41.875Z,51.156086
2023-04-25T02:19:41.852Z,51.156101
2023-04-25T02:20:41.829Z,51.156109
2023-04-25T02:21:41.833Z,51.156113
2023-04-25T02:22:41.835Z,51.156086
2023-04-25T02:23:41.790Z,51.156090
2023-04-25T02:24:41.794Z,51.156086
2023-04-25T02:25:41.794Z,51.156109
2023-04-25T02:26:41.795Z,51.156132
2023-04-25T02:27:41.794Z,51.156113
2023-04-25T02:28:41.770Z,51.156116
2023-04-25T02:29:41.856Z,51.156101
2023-04-25T02:30:41.751Z,51.156097
2023-04-25T02:31:41.792Z,51.156105
2023-04-25T02:32:41.747Z,51.156090
2023-04-25T02:33:41.708Z,51.156071
2023-04-25T02:34:42.490Z,51.156071
2023-04-25T02:35:41.694Z,51.156097
2023-04-25T02:36:41.701Z,51.156105
2023-04-25T02:37:41.696Z,51.156075
2023-04-25T02:38:41.691Z,51.156067
2023-04-25T02:39:41.668Z,51.156094
2023-04-25T02:40:41.654Z,51.156097
2023-04-25T02:41:41.677Z,51.156113
2023-04-25T02:42:41.658Z,51.156132
2023-04-25T02:43:41.624Z,51.156124
2023-04-25T02:44:41.639Z,51.156105
2023-04-25T02:45:41.619Z,51.156113
2023-04-25T02:46:41.627Z,51.156113
2023-04-25T02:47:41.644Z,51.156101
2023-04-25T02:48:41.619Z,51.156097
2023-04-25T02:49:41.584Z,51.156101
2023-04-25T02:50:41.580Z,51.156101
2023-04-25T02:51:41.618Z,51.156101
2023-04-25T02:52:41.542Z,51.156094
2023-04-25T02:53:41.531Z,51.156101
2023-04-25T02:54:41.517Z,51.156116
2023-04-25T02:55:41.570Z,51.156113
2023-04-25T02:56:41.530Z,51.156155
2023-04-25T02:57:41.483Z,51.156158
2023-04-25T02:58:41.491Z,51.156124
2023-04-25T02:59:41.495Z,51.156124
2023-04-25T03:00:41.515Z,51.156124
2023-04-25T03:01:42.516Z,51.156109
2023-04-25T03:02:41.478Z,51.156067
2023-04-25T03:03:41.459Z,51.156101
2023-04-25T03:04:41.463Z,51.156090
2023-04-25T03:06:14.889Z,51.156097
2023-04-25T03:06:41.909Z,51.156097
2023-04-25T03:15:55.401Z,51.156063
2023-04-25T03:17:29.395Z,51.156094
2023-04-25T03:18:38.142Z,51.156109
2023-04-25T03:19:33.826Z,51.156101
2023-04-25T03:24:59.948Z,51.156029
2023-04-25T03:32:27.681Z,51.156036
2023-04-25T03:32:50.586Z,51.156036
2023-04-25T03:33:34.205Z,51.156075
2023-04-25T03:34:34.119Z,51.156105
2023-04-25T03:35:34.144Z,51.156071
2023-04-25T03:37:07.992Z,51.156082
2023-04-25T03:38:01.015Z,51.156048
2023-04-25T03:39:15.665Z,51.156109
2023-04-25T03:39:34.428Z,51.156124
2023-04-25T03:51:07.068Z,51.156055
2023-04-25T03:51:34.056Z,51.156075
2023-04-25T03:52:33.663Z,51.156025
2023-04-25T03:54:06.926Z,51.155952
2023-04-25T03:54:36.870Z,51.155899
2023-04-25T03:55:34.044Z,51.155907
2023-04-25T03:57:01.133Z,51.156033
2023-04-25T03:58:06.109Z,51.156128
2023-04-25T03:58:34.282Z,51.156170
2023-04-25T04:10:50.043Z,51.156105
2023-04-25T04:11:15.647Z,51.156078
2023-04-25T04:12:15.975Z,51.156075
2023-04-25T04:13:15.541Z,51.156105
2023-04-25T04:14:49.152Z,51.156116
2023-04-25T04:15:15.533Z,51.156143
2023-04-25T04:16:55.591Z,51.156052
2023-04-25T04:17:15.701Z,51.156120
2023-04-25T04:18:49.366Z,51.156082
2023-04-25T04:19:15.775Z,51.156090
2023-04-25T04:20:53.968Z,51.156040
2023-04-25T04:21:48.457Z,51.156071
2023-04-25T04:22:16.370Z,51.156067
2023-04-25T04:23:48.041Z,51.156075
2023-04-25T04:24:17.024Z,51.156090
2023-04-25T04:25:48.345Z,51.156086
2023-04-25T04:26:15.332Z,51.156094
2023-04-25T04:27:49.222Z,51.156078
2023-04-25T04:28:47.728Z,51.156086
2023-04-25T04:29:15.302Z,51.156048
2023-04-25T04:38:13.444Z,51.155895
2023-04-25T04:38:42.012Z,51.155983
2023-04-25T04:39:40.558Z,51.156128
2023-04-25T04:40:40.580Z,51.156082
2023-04-25T04:41:40.634Z,51.156078
2023-04-25T04:42:41.689Z,51.156078
2023-04-25T04:43:40.545Z,51.156090
2023-04-25T04:44:40.463Z,51.156078
2023-04-25T04:45:40.458Z,51.156090
2023-04-25T04:46:40.502Z,51.156101
2023-04-25T04:47:40.662Z,51.156097
2023-04-25T04:48:40.395Z,51.156097
2023-04-25T04:49:40.484Z,51.156097
2023-04-25T04:50:40.350Z,51.156078
2023-04-25T04:51:40.470Z,51.156097
2023-04-25T04:52:40.418Z,51.156097
2023-04-25T04:53:40.503Z,51.156097
2023-04-25T04:54:42.501Z,51.156105
2023-04-25T04:55:40.365Z,51.156075
2023-04-25T04:56:40.397Z,51.156086
2023-04-25T04:57:40.384Z,51.156086
2023-04-25T04:58:40.269Z,51.156101
2023-04-25T04:59:40.300Z,51.156067
2023-04-25T05:00:40.302Z,51.156078
2023-04-25T05:01:40.302Z,51.156075
2023-04-25T05:02:40.783Z,51.156067
2023-04-25T05:03:41.607Z,51.156090
2023-04-25T05:04:40.617Z,51.156094
2023-04-25T05:05:40.203Z,51.156094
2023-04-25T05:06:40.311Z,51.156120
2023-04-25T05:07:40.234Z,51.156094
2023-04-25T05:08:40.175Z,51.156105
2023-04-25T05:09:41.675Z,51.156090
2023-04-25T05:10:40.516Z,51.156101
2023-04-25T05:11:40.238Z,51.156101
2023-04-25T05:13:12.746Z,51.156109
2023-04-25T05:13:40.186Z,51.156109
2023-04-25T05:14:40.758Z,51.156090
2023-04-25T05:15:40.026Z,51.156105
2023-04-25T05:16:41.057Z,51.156082
2023-04-25T05:17:40.114Z,51.156143
2023-04-25T05:18:40.010Z,51.156132
2023-04-25T05:19:40.042Z,51.156120
2023-04-25T05:20:39.972Z,51.156116
2023-04-25T05:21:40.785Z,51.156139
2023-04-25T05:22:40.025Z,51.156120
2023-04-25T05:23:39.945Z,51.156086
2023-04-25T05:24:39.945Z,51.156082
2023-04-25T05:25:39.927Z,51.156082
2023-04-25T05:26:40.054Z,51.156075
2023-04-25T05:27:39.882Z,51.156109
2023-04-25T05:28:39.904Z,51.156086
2023-04-25T05:29:39.887Z,51.156097
2023-04-25T05:30:39.935Z,51.156116
2023-04-25T05:31:39.948Z,51.156120
2023-04-25T05:32:39.887Z,51.156113
2023-04-25T05:33:39.883Z,51.156113
2023-04-25T05:34:39.910Z,51.156116
2023-04-25T05:35:39.826Z,51.156097
2023-04-25T05:36:39.837Z,51.156075
2023-04-25T05:37:39.806Z,51.156113
2023-04-25T05:38:39.785Z,51.156120
2023-04-25T05:39:39.797Z,51.156113
2023-04-25T05:40:39.770Z,51.156151
2023-04-25T05:41:39.802Z,51.156124
2023-04-25T05:42:39.757Z,51.156143
2023-04-25T05:43:40.790Z,51.156158
2023-04-25T05:44:39.739Z,51.156132
2023-04-25T05:45:39.769Z,51.156139
2023-04-25T05:46:39.711Z,51.156151
2023-04-25T05:47:39.763Z,51.156174
2023-04-25T05:48:39.702Z,51.156139
2023-04-25T05:49:39.662Z,51.156063
2023-04-25T05:50:39.681Z,51.156078
2023-04-25T05:51:39.724Z,51.156113
2023-04-25T05:52:39.694Z,51.156090
2023-04-25T05:53:39.653Z,51.156116
2023-04-25T05:54:39.640Z,51.156139
2023-04-25T05:55:39.631Z,51.156181
2023-04-25T05:56:39.658Z,51.156151
2023-04-25T05:57:39.595Z,51.156097
2023-04-25T05:58:39.587Z,51.156105
2023-04-25T05:59:39.603Z,51.156124
2023-04-25T06:00:39.701Z,51.156151
2023-04-25T06:01:39.547Z,51.156155
2023-04-25T06:02:39.660Z,51.156147
2023-04-25T06:03:39.831Z,51.156143
2023-04-25T06:04:39.613Z,51.156158
2023-04-25T06:05:39.576Z,51.156155
2023-04-25T06:06:39.573Z,51.156151
2023-04-25T06:07:39.541Z,51.156155
2023-04-25T06:08:39.528Z,51.156155
2023-04-25T06:09:39.573Z,51.156147
2023-04-25T06:10:39.529Z,51.156116
2023-04-25T06:11:39.512Z,51.156143
2023-04-25T06:12:39.526Z,51.156113
2023-04-25T06:13:39.481Z,51.156124
2023-04-25T06:14:39.559Z,51.156136
2023-04-25T06:15:39.492Z,51.156158
2023-04-25T06:16:39.555Z,51.156147
2023-04-25T06:17:39.450Z,51.156128
